Etusivu
METAR-TAF:

METAR-TAF

Lentoasemat :

Bahrainin kansainvälinen lentoasema

Bahrain, Bahrain

Leveyspiiri: 26-16N, Pituuspiiri: 050-39E, korkeus merenpinnasta: 2 m

Tämänhetkinen sää

Tämä raportti tehtiin 28 minuuttia sitten, kello 02.00 UTC
Tuuli 4 kn lännestä
Lämpötila 30°C
Kosteus 70%
Ilmanpaine 1013 hPa
Näkyvyys: 5000 m
selkeää
usvaa

METAR: OBBI 170200Z 26004KT 5000 HZ SKC 30/24 Q1013 NOSIG

Aika: 05:28 (02:28 UTC)

Sääennuste

Tämä raportti tehtiin 3 tuntia ja 28 minuuttia sitten, kello 23.00 UTC
Ennuste voimassa 17. päivästä klo 00 UTC - 18. päivään klo 06 UTC
Tuuli 5 kn eri suunnista
Näkyvyys: 8000 m
Todennäköisyys 30% :
Ajoittain
17. päivästä klo 01 UTC - 17. päivään klo 04 UTC
Näkyvyys: 5000 m
usvaa
Todennäköisyys 30% :
Ajoittain
18. päivästä klo 01 UTC - 18. päivään klo 04 UTC
Näkyvyys: 5000 m
usvaa

TAF: OBBI 162300Z 1700/1806 VRB05KT 8000 NSC PROB30 TEMPO 1701/1704 5000 HZ PROB30 TEMPO 1801/1804 5000 HZ

Säähavainnot ja -ennusteet yli 4000 lentoasemalta (METAR- ja TAF-raportit).

Käytössä olevat sääasemat on merkitty karttaan keltaisilla ja punaisilla pisteillä.

Aseta hiiri pisteen päälle nähdäksesi sääaseman nimen.

Klikkaa sitten nähdäksesi säähavainnot ja -ennusteet.

Kartan vaihtaminen: klikkaa mustalla rastilla varustettuja vihreitä pisteitä, niin voit zoomata sisään; viivalla varustettua vihreää pistettä, niin voit zoomata ulos tai vihreitä nuolia, niin pääset viereisille kartoille.


METAR-TAF: